Time;durP1;ratioP1;P1;durP2;ratioP2;P2;SDS_P1;SDS_P2;PMS_P1;PMS_P2;Temp;Humidity;BMP_temperature;BMP_pressure;BME280_temperature;BME280_humidity;BME280_pressure;Samples;Min_cycle;Max_cycle;Signal;HPM_P1;HPM_P2
2021/12/01 00:00:41;;;;;;;3.00;1.63;;;12.20;83.20;;;;;;5029625;28;20099;-47
2021/12/01 00:03:12;;;;;;;1.70;1.60;;;12.20;83.20;;;;;;5010007;28;20424;-47
2021/12/01 00:05:40;;;;;;;2.45;1.85;;;12.20;83.20;;;;;;5017669;28;20521;-47
2021/12/01 00:08:07;;;;;;;2.80;1.70;;;12.20;83.20;;;;;;5009252;28;20041;-49
2021/12/01 00:10:37;;;;;;;1.63;1.52;;;12.20;83.20;;;;;;5007814;28;20049;-45
2021/12/01 00:13:09;;;;;;;1.75;1.63;;;12.20;83.30;;;;;;5013313;28;20038;-47
2021/12/01 00:15:38;;;;;;;1.98;1.77;;;12.20;83.20;;;;;;5017878;28;20092;-47
2021/12/01 00:18:05;;;;;;;2.03;1.80;;;12.20;83.30;;;;;;5029293;28;20378;-45
2021/12/01 00:20:33;;;;;;;2.30;2.10;;;12.20;83.30;;;;;;5021002;28;20762;-48
2021/12/01 00:23:08;;;;;;;2.53;2.05;;;12.20;83.30;;;;;;5013497;28;20123;-48
2021/12/01 00:25:39;;;;;;;2.70;2.00;;;12.10;83.20;;;;;;5017275;28;20053;-46
2021/12/01 00:28:09;;;;;;;2.13;1.92;;;12.10;83.20;;;;;;5009135;28;20053;-45
2021/12/01 00:30:36;;;;;;;3.33;2.00;;;12.10;83.20;;;;;;5006043;28;20037;-45
2021/12/01 00:33:03;;;;;;;1.70;1.60;;;12.10;83.20;;;;;;5017049;28;20049;-46
2021/12/01 00:35:30;;;;;;;1.38;1.27;;;12.10;83.20;;;;;;5020661;28;20099;-45
2021/12/01 00:37:57;;;;;;;2.55;1.52;;;12.10;83.20;;;;;;5028994;28;20091;-46
2021/12/01 00:40:25;;;;;;;1.65;1.55;;;12.10;83.20;;;;;;5006618;28;20045;-46
2021/12/01 00:42:54;;;;;;;2.05;1.88;;;12.10;83.30;;;;;;5008592;28;20062;-45
2021/12/01 00:45:22;;;;;;;1.70;1.60;;;12.10;83.10;;;;;;5007847;28;20038;-46
2021/12/01 00:47:51;;;;;;;1.67;1.58;;;12.10;83.10;;;;;;5006131;28;20042;-46
2021/12/01 00:50:22;;;;;;;1.65;1.50;;;12.10;83.20;;;;;;5008163;28;20056;-46
2021/12/01 00:52:57;;;;;;;2.00;1.77;;;12.10;83.20;;;;;;5017796;28;20468;-46
2021/12/01 00:55:24;;;;;;;;;;;12.10;83.20;;;;;;5026415;28;20049;-46
2021/12/01 00:57:53;;;;;;;1.52;1.13;;;12.10;83.70;;;;;;5026712;28;19986;-46
2021/12/01 01:00:22;;;;;;;1.45;1.35;;;12.10;82.90;;;;;;5010165;28;20049;-45
2021/12/01 01:02:50;;;;;;;1.63;1.52;;;12.10;83.00;;;;;;5020063;28;20068;-46
2021/12/01 01:05:18;;;;;;;1.50;1.35;;;12.00;83.10;;;;;;5027828;28;20038;-45
2021/12/01 01:07:48;;;;;;;2.63;1.23;;;12.10;83.10;;;;;;5021423;28;20502;-46
2021/12/01 01:18:29;;;;;;;1.90;1.80;;;12.00;83.00;;;;;;5010487;28;20423;-45
2021/12/01 01:20:56;;;;;;;1.58;1.27;;;12.00;82.90;;;;;;5020175;28;20041;-45
2021/12/01 01:23:26;;;;;;;2.10;1.17;;;12.00;83.10;;;;;;5021518;28;20041;-48
2021/12/01 01:25:53;;;;;;;2.42;1.70;;;12.00;83.10;;;;;;5007102;28;20065;-46
2021/12/01 01:28:20;;;;;;;1.75;1.65;;;12.00;83.10;;;;;;5009483;28;20049;-46
2021/12/01 01:30:47;;;;;;;2.08;1.85;;;12.00;83.00;;;;;;5019557;28;20063;-50
2021/12/01 01:33:14;;;;;;;1.55;0.95;;;12.00;82.90;;;;;;5028251;28;20057;-45
2021/12/01 01:35:41;;;;;;;1.75;1.65;;;12.00;83.00;;;;;;5018692;28;20116;-45
2021/12/01 01:38:10;;;;;;;1.60;1.50;;;12.00;82.90;;;;;;5018562;28;20103;-46
2021/12/01 01:40:37;;;;;;;2.70;1.58;;;12.00;83.60;;;;;;5020429;28;20099;-46
2021/12/01 01:43:06;;;;;;;1.85;1.75;;;12.00;82.80;;;;;;5009185;28;20045;-48
2021/12/01 01:45:34;;;;;;;1.90;1.70;;;12.00;82.80;;;;;;5006899;28;20056;-45
2021/12/01 01:48:04;;;;;;;2.47;1.38;;;12.00;82.80;;;;;;5016787;28;20050;-49
2021/12/01 01:50:37;;;;;;;2.55;1.83;;;12.00;82.80;;;;;;5056321;22;20562;-48
2021/12/01 01:53:09;;;;;;;1.60;1.50;;;12.00;82.80;;;;;;5049230;28;20120;-48
2021/12/01 01:55:39;;;;;;;2.13;1.60;;;11.90;82.70;;;;;;5049108;28;20037;-47
2021/12/01 01:58:07;;;;;;;1.73;1.63;;;11.90;82.60;;;;;;5040168;28;20033;-48
2021/12/01 02:00:45;;;;;;;2.30;2.00;;;11.90;82.60;;;;;;5022176;28;20041;-47
2021/12/01 02:03:13;;;;;;;2.33;1.52;;;11.90;82.60;;;;;;5029103;28;20100;-48
2021/12/01 02:05:41;;;;;;;2.08;1.83;;;11.90;82.50;;;;;;5014977;28;20552;-48
2021/12/01 02:08:42;;;;;;;2.13;1.92;;;11.90;82.30;;;;;;5025110;28;20044;-48
2021/12/01 02:11:05;;;;;;;1.77;1.67;;;11.90;82.30;;;;;;5004100;28;20050;-47
2021/12/01 02:13:33;;;;;;;2.17;1.85;;;11.90;82.10;;;;;;5008927;28;20122;-47
2021/12/01 02:16:00;;;;;;;2.00;1.90;;;11.90;82.10;;;;;;5015612;28;20084;-48
2021/12/01 02:18:27;;;;;;;2.78;2.47;;;11.90;82.10;;;;;;5032400;28;20692;-50
2021/12/01 02:21:12;;;;;;;2.75;2.35;;;11.90;82.00;;;;;;5022078;28;20064;-46
2021/12/01 02:23:45;;;;;;;3.33;2.53;;;11.90;81.90;;;;;;5003799;28;20034;-47
2021/12/01 02:26:17;;;;;;;2.17;2.08;;;11.80;81.90;;;;;;5016378;28;20054;-47
2021/12/01 02:28:46;;;;;;;2.83;1.88;;;11.80;82.00;;;;;;5032821;28;20037;-47
2021/12/01 02:31:13;;;;;;;2.13;1.80;;;11.90;81.80;;;;;;5032672;28;20045;-48
2021/12/01 02:33:41;;;;;;;2.90;2.05;;;11.80;81.80;;;;;;5012164;28;20088;-49
2021/12/01 02:36:10;;;;;;;2.28;2.08;;;11.80;81.70;;;;;;5026116;28;20517;-47
2021/12/01 02:38:40;;;;;;;2.45;2.25;;;11.80;81.80;;;;;;5031695;28;20037;-48
2021/12/01 02:41:08;;;;;;;2.97;2.20;;;11.80;81.70;;;;;;5025971;28;20100;-48
2021/12/01 02:43:35;;;;;;;3.85;2.78;;;11.80;81.60;;;;;;5024823;28;20448;-47
2021/12/01 02:46:02;;;;;;;3.30;2.50;;;11.80;81.60;;;;;;5031352;28;20049;-48
2021/12/01 02:48:30;;;;;;;2.38;2.17;;;11.80;81.50;;;;;;5031320;28;20068;-49
2021/12/01 02:50:58;;;;;;;2.97;2.63;;;11.80;81.30;;;;;;5026892;28;20386;-47
2021/12/01 02:53:27;;;;;;;3.88;2.78;;;11.80;81.30;;;;;;5018103;28;20052;-47
2021/12/01 02:55:57;;;;;;;2.55;2.38;;;11.80;81.30;;;;;;5031897;28;20037;-50
2021/12/01 02:58:26;;;;;;;5.00;3.00;;;11.80;81.20;;;;;;5031468;28;20045;-47
2021/12/01 03:00:55;;;;;;;3.63;2.53;;;11.80;81.20;;;;;;5014741;28;20046;-48
2021/12/01 03:03:23;;;;;;;5.20;3.40;;;11.80;81.10;;;;;;5025320;28;20041;-49
2021/12/01 03:05:50;;;;;;;3.20;2.90;;;11.80;81.20;;;;;;5031592;28;20100;-49
2021/12/01 03:08:19;;;;;;;5.28;3.08;;;11.70;81.00;;;;;;5022118;28;20449;-47
2021/12/01 03:10:49;;;;;;;4.82;3.60;;;11.70;81.00;;;;;;5001955;28;20037;-49
2021/12/01 03:13:19;;;;;;;4.38;3.53;;;11.70;81.00;;;;;;5029602;28;20056;-47
2021/12/01 03:15:46;;;;;;;4.32;3.92;;;11.70;81.00;;;;;;5011210;28;20456;-48
2021/12/01 03:18:14;;;;;;;5.55;4.55;;;11.70;80.90;;;;;;5014382;28;20034;-47
2021/12/01 03:20:44;;;;;;;4.82;4.20;;;11.70;80.90;;;;;;5014697;28;20042;-47
2021/12/01 03:23:11;;;;;;;4.53;4.13;;;11.70;81.60;;;;;;5026071;28;20766;-48
2021/12/01 03:25:39;;;;;;;5.20;4.55;;;11.60;80.90;;;;;;4991908;28;20473;-46
2021/12/01 03:28:08;;;;;;;5.38;4.88;;;11.60;81.00;;;;;;5006002;28;20585;-49
2021/12/01 03:30:37;;;;;;;7.00;5.85;;;11.60;81.00;;;;;;5025352;28;20123;-47
2021/12/01 03:33:11;;;;;;;5.40;4.88;;;11.60;80.80;;;;;;5031602;28;20440;-48
2021/12/01 03:35:42;;;;;;;6.53;5.47;;;11.60;81.00;;;;;;5030909;28;20049;-48
2021/12/01 03:38:10;;;;;;;6.18;5.35;;;11.60;81.10;;;;;;5010438;28;20046;-47
2021/12/01 03:40:37;;;;;;;6.78;5.63;;;11.50;81.20;;;;;;5014079;28;20034;-49
2021/12/01 03:43:04;;;;;;;6.32;5.68;;;11.50;81.10;;;;;;5026229;28;20075;-48
2021/12/01 03:45:31;;;;;;;8.50;6.03;;;11.50;81.10;;;;;;5011933;28;20084;-47
2021/12/01 03:47:58;;;;;;;8.27;5.57;;;11.50;81.00;;;;;;5021504;28;20041;-48
2021/12/01 03:50:28;;;;;;;6.78;5.88;;;11.50;81.40;;;;;;5030563;28;20048;-48
2021/12/01 03:52:54;;;;;;;6.40;5.78;;;11.40;81.40;;;;;;5026438;28;20038;-47
2021/12/01 03:55:21;;;;;;;6.70;5.97;;;11.40;81.50;;;;;;5016685;28;20042;-48
2021/12/01 03:57:48;;;;;;;6.38;5.60;;;11.40;81.50;;;;;;5022195;28;20045;-47
2021/12/01 04:00:17;;;;;;;5.90;5.13;;;11.40;81.50;;;;;;5029502;28;20434;-48
2021/12/01 04:02:47;;;;;;;7.60;6.50;;;11.40;81.50;;;;;;5029847;28;20047;-46
2021/12/01 04:05:15;;;;;;;7.00;6.30;;;11.40;81.40;;;;;;5021676;28;20501;-48
2021/12/01 04:07:44;;;;;;;5.70;5.10;;;11.30;81.40;;;;;;5017272;28;20034;-47
2021/12/01 04:10:14;;;;;;;7.05;5.35;;;11.30;81.50;;;;;;5022815;28;20046;-48
2021/12/01 04:12:42;;;;;;;6.28;4.85;;;11.30;81.50;;;;;;5009806;28;20038;-49
2021/12/01 04:15:14;;;;;;;5.75;4.75;;;11.30;81.50;;;;;;5009015;28;20622;-47
2021/12/01 04:17:42;;;;;;;5.53;5.03;;;11.30;81.50;;;;;;5015892;28;20112;-48
2021/12/01 04:20:12;;;;;;;6.45;5.55;;;11.20;81.60;;;;;;5029819;28;20037;-51
2021/12/01 04:22:40;;;;;;;5.65;4.75;;;11.20;81.50;;;;;;5030251;28;20099;-46
2021/12/01 04:25:07;;;;;;;4.95;4.45;;;11.20;81.60;;;;;;5018366;28;20045;-47
2021/12/01 04:27:37;;;;;;;5.72;5.22;;;11.20;81.60;;;;;;5029299;28;20053;-50
2021/12/01 04:30:06;;;;;;;6.15;4.43;;;11.20;81.40;;;;;;5029969;28;20505;-48
2021/12/01 04:32:40;;;;;;;8.82;5.15;;;11.20;81.30;;;;;;5025136;28;20061;-49
2021/12/01 04:35:07;;;;;;;5.43;4.30;;;11.20;81.20;;;;;;5013322;28;20042;-49
2021/12/01 04:37:35;;;;;;;6.28;4.55;;;11.20;81.10;;;;;;5023398;28;20095;-48
2021/12/01 04:40:06;;;;;;;5.05;4.55;;;11.20;81.20;;;;;;5028838;28;20045;-48
2021/12/01 04:42:36;;;;;;;5.32;4.38;;;11.20;81.00;;;;;;5012431;28;20111;-47
2021/12/01 04:45:14;;;;;;;5.57;4.38;;;11.20;81.00;;;;;;5010742;28;20048;-50
2021/12/01 04:47:43;;;;;;;5.65;3.90;;;11.20;81.40;;;;;;5021002;28;20521;-47
2021/12/01 04:50:12;;;;;;;3.95;3.55;;;11.20;80.90;;;;;;5029066;28;20057;-49
2021/12/01 04:52:41;;;;;;;4.00;3.60;;;11.20;80.70;;;;;;5020374;28;20054;-49
2021/12/01 04:55:08;;;;;;;3.40;3.10;;;11.20;80.70;;;;;;5010503;28;20169;-48
2021/12/01 04:57:41;;;;;;;4.93;3.30;;;11.10;80.50;;;;;;5029256;28;20548;-47
2021/12/01 05:00:12;;;;;;;5.50;3.35;;;11.20;80.60;;;;;;5029390;28;20115;-48
2021/12/01 05:02:39;;;;;;;4.80;3.17;;;11.20;80.70;;;;;;5019235;28;20042;-48
2021/12/01 05:05:06;;;;;;;3.33;2.42;;;11.10;80.50;;;;;;5027799;28;20624;-47
2021/12/01 05:07:33;;;;;;;3.53;3.22;;;11.10;80.40;;;;;;5018817;28;20460;-48
2021/12/01 05:10:00;;;;;;;3.78;2.60;;;11.10;80.50;;;;;;5008346;28;20042;-48
2021/12/01 05:12:28;;;;;;;4.22;2.55;;;11.10;80.40;;;;;;5011225;28;20502;-49
2021/12/01 05:14:54;;;;;;;3.03;2.58;;;11.10;80.40;;;;;;5021793;28;20474;-51
2021/12/01 05:17:21;;;;;;;3.70;2.55;;;11.10;80.40;;;;;;4997426;28;20121;-50
2021/12/01 05:19:50;;;;;;;2.55;1.85;;;11.10;80.40;;;;;;5013611;28;20092;-49
2021/12/01 05:22:18;;;;;;;2.63;2.42;;;11.10;80.40;;;;;;5028209;28;20417;-50
2021/12/01 05:24:45;;;;;;;1.98;1.80;;;11.10;80.30;;;;;;5018036;28;20049;-48
2021/12/01 05:27:12;;;;;;;2.75;2.42;;;11.20;80.30;;;;;;5020594;28;20046;-47
2021/12/01 05:29:38;;;;;;;3.67;2.35;;;11.20;80.10;;;;;;4989733;28;20049;-47
2021/12/01 05:32:06;;;;;;;4.35;2.53;;;11.20;80.10;;;;;;5010129;28;20451;-47
2021/12/01 05:34:35;;;;;;;2.20;2.00;;;11.20;80.10;;;;;;5028008;28;20065;-49
2021/12/01 05:37:02;;;;;;;2.60;2.28;;;11.20;80.00;;;;;;5025671;28;20490;-49
2021/12/01 05:39:33;;;;;;;2.50;2.30;;;11.20;80.10;;;;;;5005639;28;20525;-52
2021/12/01 05:42:00;;;;;;;2.60;1.98;;;11.20;80.10;;;;;;4998642;28;20379;-48
2021/12/01 05:44:30;;;;;;;2.33;2.00;;;11.20;80.00;;;;;;5005799;28;20077;-51
2021/12/01 05:46:57;;;;;;;2.28;1.88;;;11.20;79.90;;;;;;5008846;28;20090;-47
2021/12/01 05:49:26;;;;;;;2.17;1.92;;;11.20;79.80;;;;;;5008646;28;20099;-49
2021/12/01 05:51:59;;;;;;;2.42;1.98;;;11.20;79.60;;;;;;5020217;28;20049;-48
2021/12/01 05:54:28;;;;;;;2.65;1.92;;;11.20;79.60;;;;;;5031565;28;20092;-50
2021/12/01 05:56:55;;;;;;;2.03;1.80;;;11.30;79.70;;;;;;5027513;28;20100;-48
2021/12/01 05:59:22;;;;;;;3.55;2.25;;;11.20;79.60;;;;;;5016797;28;20050;-48
2021/12/01 06:01:51;;;;;;;3.13;2.20;;;11.20;79.60;;;;;;5032803;28;20072;-50
2021/12/01 06:04:18;;;;;;;2.58;2.10;;;11.20;79.40;;;;;;5031433;28;20042;-52
2021/12/01 06:06:45;;;;;;;2.88;1.83;;;11.20;79.60;;;;;;5018954;28;20041;-50
2021/12/01 06:09:14;;;;;;;2.05;1.75;;;11.20;79.60;;;;;;5007754;28;20460;-51
2021/12/01 06:11:41;;;;;;;2.25;1.80;;;11.20;79.60;;;;;;5000746;28;20042;-48
2021/12/01 06:14:09;;;;;;;1.92;1.70;;;11.20;79.60;;;;;;5003396;28;20049;-48
2021/12/01 06:16:38;;;;;;;2.05;1.85;;;11.20;79.60;;;;;;5008738;28;20506;-48
2021/12/01 06:19:05;;;;;;;1.70;1.60;;;11.20;79.60;;;;;;5006647;28;20073;-49
2021/12/01 06:21:38;;;;;;;2.50;2.05;;;11.20;79.70;;;;;;5011651;28;20045;-47
2021/12/01 06:24:05;;;;;;;2.42;2.20;;;11.20;79.80;;;;;;5027461;28;20547;-48
2021/12/01 06:26:36;;;;;;;2.22;1.88;;;11.20;79.70;;;;;;5010132;28;20069;-49
2021/12/01 06:29:04;;;;;;;2.10;1.90;;;11.20;79.70;;;;;;5024736;28;20497;-50
2021/12/01 06:31:30;;;;;;;2.05;1.70;;;11.10;79.70;;;;;;5028563;28;20497;-49
2021/12/01 06:33:58;;;;;;;1.75;1.40;;;11.10;79.90;;;;;;5027966;28;20038;-52
2021/12/01 06:36:27;;;;;;;1.50;1.40;;;11.10;79.90;;;;;;5018383;28;20050;-49
2021/12/01 06:38:54;;;;;;;1.73;1.63;;;11.10;80.00;;;;;;5022815;28;20843;-50
2021/12/01 06:41:21;;;;;;;1.58;1.40;;;11.10;80.10;;;;;;5010389;28;20041;-50
2021/12/01 06:43:48;;;;;;;1.80;1.50;;;11.00;80.20;;;;;;5010148;28;20049;-48
2021/12/01 06:46:15;;;;;;;2.08;1.33;;;11.10;80.30;;;;;;5009667;28;20045;-48
2021/12/01 06:48:42;;;;;;;3.00;1.60;;;11.00;80.40;;;;;;5011168;28;20065;-48
2021/12/01 06:51:09;;;;;;;2.25;1.60;;;11.00;80.50;;;;;;5005881;28;20535;-52
2021/12/01 06:53:35;;;;;;;1.40;1.30;;;11.00;80.50;;;;;;5004279;28;20099;-49
2021/12/01 06:56:02;;;;;;;1.98;1.08;;;11.00;80.50;;;;;;5008130;28;20045;-51
2021/12/01 06:58:29;;;;;;;2.55;1.63;;;11.00;80.40;;;;;;5004718;28;20065;-51
2021/12/01 07:00:56;;;;;;;1.98;1.40;;;11.00;80.50;;;;;;4991520;28;20042;-48
2021/12/01 07:03:23;;;;;;;1.85;1.50;;;11.00;80.70;;;;;;4999730;28;20089;-51
2021/12/01 07:05:50;;;;;;;1.40;1.30;;;10.90;80.70;;;;;;5007675;28;20366;-50
2021/12/01 07:08:16;;;;;;;1.50;1.40;;;11.00;80.70;;;;;;5018657;28;20069;-47
2021/12/01 07:10:44;;;;;;;1.63;1.38;;;11.00;80.80;;;;;;5019086;28;20414;-49
2021/12/01 07:13:11;;;;;;;1.42;1.15;;;11.00;80.90;;;;;;5009250;28;20042;-49
2021/12/01 07:15:38;;;;;;;1.50;1.35;;;11.00;80.80;;;;;;5007667;28;20040;-48
2021/12/01 07:18:05;;;;;;;1.45;1.33;;;11.00;81.10;;;;;;5030351;28;20761;-48
2021/12/01 07:20:32;;;;;;;1.30;1.20;;;11.00;80.70;;;;;;5031053;28;20041;-48
2021/12/01 07:22:58;;;;;;;1.02;0.90;;;11.00;80.80;;;;;;5018422;28;20047;-48
2021/12/01 07:25:25;;;;;;;1.55;1.42;;;11.00;80.70;;;;;;5010276;28;20119;-48
2021/12/01 07:27:52;;;;;;;0.90;0.90;;;11.00;80.70;;;;;;5009980;28;20038;-48
2021/12/01 07:30:19;;;;;;;1.40;1.15;;;11.00;80.80;;;;;;5002225;28;20486;-50
2021/12/01 07:32:46;;;;;;;0.90;0.90;;;11.00;80.80;;;;;;5006479;28;20037;-49
2021/12/01 07:35:13;;;;;;;1.17;1.08;;;11.00;80.90;;;;;;5026389;28;20049;-50
2021/12/01 07:37:39;;;;;;;1.15;0.90;;;11.00;80.90;;;;;;5015195;28;20152;-49
2021/12/01 07:40:07;;;;;;;0.75;0.73;;;11.00;80.90;;;;;;5027779;28;20092;-49
2021/12/01 07:42:34;;;;;;;1.35;0.77;;;11.00;80.90;;;;;;5013533;28;20049;-48
2021/12/01 07:45:05;;;;;;;1.02;0.93;;;11.10;81.00;;;;;;5030629;28;20129;-48
2021/12/01 07:47:33;;;;;;;0.73;0.73;;;11.10;81.00;;;;;;5032055;28;20456;-49
2021/12/01 07:50:00;;;;;;;0.70;0.70;;;11.10;81.20;;;;;;5031517;28;20523;-48
2021/12/01 07:52:26;;;;;;;0.70;0.70;;;11.10;81.10;;;;;;5018240;28;20045;-48
2021/12/01 07:54:53;;;;;;;0.73;0.70;;;11.10;81.10;;;;;;5017536;28;20039;-48
2021/12/01 07:57:20;;;;;;;0.70;0.70;;;11.10;81.20;;;;;;5053464;22;20061;-48
2021/12/01 07:59:47;;;;;;;0.80;0.47;;;11.10;81.20;;;;;;5046346;28;20512;-51
2021/12/01 08:02:13;;;;;;;1.10;1.00;;;11.10;81.20;;;;;;5031502;28;20088;-49
2021/12/01 08:04:40;;;;;;;0.68;0.68;;;11.10;81.20;;;;;;5051380;28;20095;-49
2021/12/01 08:07:07;;;;;;;1.58;0.60;;;11.10;81.20;;;;;;5039028;28;20037;-50
2021/12/01 08:09:34;;;;;;;0.80;0.63;;;11.10;81.30;;;;;;5006884;28;20041;-49
2021/12/01 08:12:01;;;;;;;0.43;0.40;;;11.10;81.40;;;;;;5013427;28;20144;-49
2021/12/01 08:14:28;;;;;;;0.60;0.60;;;11.10;81.40;;;;;;5026839;28;20451;-49
2021/12/01 08:16:55;;;;;;;0.47;0.47;;;11.10;81.40;;;;;;5005112;28;20104;-48
2021/12/01 08:19:22;;;;;;;0.80;0.77;;;11.10;81.60;;;;;;5006528;28;20031;-49
2021/12/01 08:21:50;;;;;;;0.90;0.63;;;11.10;81.60;;;;;;5019070;28;20045;-49
2021/12/01 08:24:19;;;;;;;0.60;0.47;;;11.10;82.20;;;;;;5030010;28;20048;-50
2021/12/01 08:26:47;;;;;;;0.57;0.40;;;11.10;81.60;;;;;;5010173;28;20053;-49
2021/12/01 08:29:15;;;;;;;0.73;0.60;;;11.10;81.50;;;;;;5005164;28;20050;-49
2021/12/01 08:31:43;;;;;;;0.60;0.60;;;11.20;81.60;;;;;;5023393;28;20193;-49
2021/12/01 08:34:10;;;;;;;0.65;0.55;;;11.20;81.70;;;;;;5031123;28;20045;-49
2021/12/01 08:36:37;;;;;;;0.30;0.30;;;11.20;81.70;;;;;;5013698;28;20042;-51
2021/12/01 08:39:05;;;;;;;0.40;0.40;;;11.20;81.80;;;;;;5007560;28;20512;-49
2021/12/01 08:41:31;;;;;;;0.90;0.43;;;11.20;81.70;;;;;;5016199;28;20042;-51
2021/12/01 08:43:58;;;;;;;0.40;0.35;;;11.20;81.60;;;;;;5019223;28;20046;-49
2021/12/01 08:46:25;;;;;;;0.30;0.30;;;11.20;81.50;;;;;;5012307;28;20084;-49
2021/12/01 08:48:52;;;;;;;0.43;0.30;;;11.30;81.40;;;;;;5025958;28;20042;-51
2021/12/01 08:51:19;;;;;;;0.30;0.30;;;11.30;81.40;;;;;;5007753;28;20092;-49
2021/12/01 08:53:45;;;;;;;0.55;0.35;;;11.30;81.50;;;;;;5008225;28;20042;-50
2021/12/01 08:56:12;;;;;;;0.38;0.20;;;11.30;81.50;;;;;;5015354;28;20038;-53
2021/12/01 08:58:40;;;;;;;0.38;0.20;;;11.30;81.50;;;;;;5001051;28;20108;-49
2021/12/01 09:01:06;;;;;;;1.70;0.20;;;11.30;81.40;;;;;;5010693;28;20038;-49
2021/12/01 09:03:34;;;;;;;1.08;0.22;;;11.40;81.40;;;;;;5010996;28;20499;-50
2021/12/01 09:06:03;;;;;;;0.40;0.40;;;11.40;81.30;;;;;;5013874;28;20107;-52
2021/12/01 09:08:30;;;;;;;1.65;0.40;;;11.40;81.30;;;;;;5026296;28;20249;-50
2021/12/01 09:10:59;;;;;;;0.60;0.20;;;11.40;81.30;;;;;;5016059;28;20455;-50
2021/12/01 09:13:29;;;;;;;2.10;0.50;;;11.40;81.30;;;;;;5010864;28;20573;-49
2021/12/01 09:15:57;;;;;;;0.73;0.30;;;11.40;81.30;;;;;;5004686;28;20484;-49
2021/12/01 09:18:27;;;;;;;1.85;0.20;;;11.40;81.30;;;;;;5020023;28;20510;-52
2021/12/01 09:20:57;;;;;;;;;;;11.40;81.30;;;;;;5014934;28;20045;-51
2021/12/01 09:23:24;;;;;;;5.25;0.50;;;11.50;81.60;;;;;;5006810;28;19926;-52
2021/12/01 09:25:51;;;;;;;0.73;0.30;;;11.40;81.00;;;;;;5015793;28;20545;-52
2021/12/01 09:28:22;;;;;;;1.02;0.40;;;11.50;81.20;;;;;;5031510;28;20045;-53
2021/12/01 09:30:52;;;;;;;2.05;0.52;;;11.40;81.40;;;;;;5013882;28;20478;-50
2021/12/01 09:33:19;;;;;;;0.68;0.40;;;11.40;81.50;;;;;;5011409;28;20077;-52
2021/12/01 09:35:47;;;;;;;1.17;0.47;;;11.40;81.50;;;;;;5009178;28;20390;-53
2021/12/01 09:38:16;;;;;;;1.15;0.32;;;11.50;81.60;;;;;;5022912;28;20124;-50
2021/12/01 09:40:51;;;;;;;0.77;0.45;;;11.50;81.60;;;;;;5014727;28;20132;-49
2021/12/01 09:43:22;;;;;;;1.65;0.43;;;11.50;82.00;;;;;;5012442;28;20049;-53
2021/12/01 09:45:49;;;;;;;1.67;0.57;;;11.50;81.70;;;;;;5022116;28;20048;-53
2021/12/01 09:48:16;;;;;;;0.43;0.40;;;11.50;81.60;;;;;;5030478;28;20072;-51
2021/12/01 09:50:54;;;;;;;0.30;0.30;;;11.50;81.80;;;;;;5021650;28;20077;-53
2021/12/01 09:53:21;;;;;;;0.60;0.40;;;11.50;81.70;;;;;;5010999;28;20101;-52
2021/12/01 09:55:48;;;;;;;0.20;0.20;;;11.50;81.80;;;;;;5013111;28;20041;-49
2021/12/01 09:58:24;;;;;;;1.55;0.40;;;11.50;81.60;;;;;;5033880;28;20037;-53
2021/12/01 10:00:57;;;;;;;0.52;0.40;;;11.60;81.60;;;;;;5012927;28;20593;-51
2021/12/01 10:03:26;;;;;;;0.47;0.30;;;11.50;81.60;;;;;;5017810;28;20640;-49
2021/12/01 10:06:07;;;;;;;1.05;0.50;;;11.60;81.50;;;;;;5033470;28;20041;-53
2021/12/01 10:08:38;;;;;;;1.17;0.30;;;11.60;81.50;;;;;;5022544;28;20116;-53
2021/12/01 10:11:20;;;;;;;1.73;0.40;;;11.60;81.60;;;;;;5011334;28;20076;-53
2021/12/01 10:13:57;;;;;;;0.52;0.40;;;11.60;81.80;;;;;;5011694;28;20049;-53
2021/12/01 10:16:27;;;;;;;0.20;0.20;;;11.60;81.80;;;;;;5006321;28;20445;-51
2021/12/01 10:18:57;;;;;;;0.20;0.20;;;11.60;81.70;;;;;;5003712;28;20039;-50
2021/12/01 10:21:41;;;;;;;1.52;0.60;;;11.70;81.80;;;;;;5011287;28;20064;-53
2021/12/01 10:24:24;;;;;;;0.60;0.45;;;11.60;81.90;;;;;;5009709;28;20170;-53
2021/12/01 10:26:54;;;;;;;0.43;0.43;;;11.70;82.10;;;;;;5011160;28;20394;-53
2021/12/01 10:29:34;;;;;;;0.57;0.30;;;11.70;82.00;;;;;;5012077;28;20085;-53
2021/12/01 10:32:07;;;;;;;0.35;0.32;;;11.70;82.00;;;;;;5012261;28;20044;-52
2021/12/01 10:34:44;;;;;;;0.40;0.40;;;11.70;81.90;;;;;;5022409;28;20049;-51
2021/12/01 10:37:26;;;;;;;0.77;0.40;;;11.70;81.80;;;;;;5006645;28;20039;-53
2021/12/01 10:40:12;;;;;;;0.83;0.50;;;11.70;81.80;;;;;;5006687;28;20046;-49
2021/12/01 10:42:55;;;;;;;0.28;0.28;;;11.70;81.90;;;;;;5018322;28;20272;-50
2021/12/01 10:45:42;;;;;;;1.38;0.35;;;11.80;81.90;;;;;;5016961;28;20037;-50
2021/12/01 10:48:18;;;;;;;0.70;0.60;;;11.80;82.10;;;;;;5011095;28;20096;-53
2021/12/01 10:50:45;;;;;;;0.60;0.40;;;11.80;82.10;;;;;;5013793;28;20397;-50
2021/12/01 10:53:17;;;;;;;1.65;0.60;;;11.80;82.50;;;;;;5029012;28;20634;-49
2021/12/01 10:55:54;;;;;;;1.08;0.80;;;11.80;82.30;;;;;;4993407;28;20065;-53
2021/12/01 10:58:33;;;;;;;0.75;0.75;;;11.80;82.30;;;;;;5002715;28;20062;-51
2021/12/01 11:01:01;;;;;;;0.90;0.65;;;11.90;82.40;;;;;;5006333;28;20565;-52
2021/12/01 11:03:30;;;;;;;0.60;0.60;;;11.80;82.20;;;;;;5009344;28;20061;-53
2021/12/01 11:06:09;;;;;;;2.58;1.02;;;11.90;82.40;;;;;;5010055;28;20049;-53
2021/12/01 11:08:38;;;;;;;1.98;1.63;;;11.90;82.90;;;;;;4996918;28;20045;-49
2021/12/01 11:11:12;;;;;;;2.80;2.60;;;11.90;83.00;;;;;;5007709;28;20050;-52
2021/12/01 11:13:42;;;;;;;3.72;1.80;;;11.80;82.80;;;;;;5021361;28;20144;-49
2021/12/01 11:16:12;;;;;;;1.50;1.10;;;11.80;82.80;;;;;;5010242;28;20073;-51
2021/12/01 11:18:49;;;;;;;0.73;0.73;;;11.80;83.00;;;;;;5005705;28;20038;-50
2021/12/01 11:21:23;;;;;;;0.55;0.40;;;11.80;83.20;;;;;;5020572;28;20042;-51
2021/12/01 11:23:53;;;;;;;1.08;0.77;;;11.80;83.30;;;;;;5029637;28;20504;-51
2021/12/01 11:26:27;;;;;;;0.73;0.70;;;11.80;83.60;;;;;;5022346;28;20125;-53
2021/12/01 11:28:59;;;;;;;1.17;1.08;;;11.70;83.70;;;;;;5011406;28;20169;-52
2021/12/01 11:31:32;;;;;;;3.53;1.30;;;11.70;83.70;;;;;;5018670;28;20464;-53
2021/12/01 11:34:05;;;;;;;2.28;1.33;;;11.70;83.70;;;;;;5000477;28;20034;-52
2021/12/01 11:36:35;;;;;;;;;;;11.70;83.60;;;;;;5006040;28;20041;-50
2021/12/01 11:39:08;;;;;;;2.13;1.10;;;11.70;84.20;;;;;;5006080;28;20604;-49
2021/12/01 11:41:38;;;;;;;2.20;1.20;;;11.70;83.50;;;;;;5007769;28;20414;-53
2021/12/01 11:44:05;;;;;;;3.03;1.48;;;11.70;83.60;;;;;;5004931;28;20037;-52
2021/12/01 11:46:33;;;;;;;3.65;1.15;;;11.60;83.50;;;;;;5005544;28;20050;-52
2021/12/01 11:49:06;;;;;;;2.30;1.45;;;11.70;83.40;;;;;;5006409;28;20053;-53
2021/12/01 11:51:58;;;;;;;2.17;1.50;;;11.60;83.50;;;;;;5004093;28;20049;-52
2021/12/01 11:54:26;;;;;;;2.50;1.40;;;11.60;83.70;;;;;;4989545;28;20058;-53
2021/12/01 11:57:05;;;;;;;3.22;1.85;;;11.60;83.40;;;;;;5011757;28;20049;-53
2021/12/01 11:59:37;;;;;;;2.90;1.70;;;11.60;83.50;;;;;;5019616;28;20041;-53
2021/12/01 12:02:34;;;;;;;2.67;1.30;;;11.50;83.70;;;;;;5008592;28;20054;-50
2021/12/01 12:05:02;;;;;;;2.67;1.50;;;11.50;84.50;;;;;;4999103;28;20100;-53
2021/12/01 12:07:33;;;;;;;2.05;1.63;;;11.50;84.10;;;;;;5004844;28;20092;-51
2021/12/01 12:10:10;;;;;;;4.55;1.88;;;11.50;84.20;;;;;;5002386;28;20121;-53
2021/12/01 12:13:04;;;;;;;2.22;1.67;;;11.60;84.00;;;;;;5000486;28;20049;-52
2021/12/01 12:15:37;;;;;;;3.83;2.13;;;11.50;83.60;;;;;;5013181;28;20046;-51
2021/12/01 12:18:10;;;;;;;3.92;2.03;;;11.60;83.20;;;;;;5015174;28;20042;-50
2021/12/01 12:20:56;;;;;;;2.47;1.50;;;11.50;83.00;;;;;;5010104;28;20042;-49
2021/12/01 12:23:33;;;;;;;5.03;1.73;;;11.50;82.80;;;;;;5008423;28;20453;-49
2021/12/01 12:26:00;;;;;;;3.42;1.67;;;11.50;82.60;;;;;;5016861;28;20087;-49
2021/12/01 12:28:36;;;;;;;3.70;2.00;;;11.50;82.80;;;;;;5029312;28;20116;-50
2021/12/01 12:31:26;;;;;;;5.28;1.70;;;11.40;82.80;;;;;;5003560;28;20094;-51
2021/12/01 12:33:59;;;;;;;4.80;1.17;;;11.40;83.00;;;;;;5009659;28;20124;-50
2021/12/01 12:36:57;;;;;;;1.80;1.00;;;11.40;82.80;;;;;;5013811;28;20038;-51
2021/12/01 12:39:27;;;;;;;2.30;1.00;;;11.40;82.70;;;;;;4999574;28;20040;-49
2021/12/01 12:42:05;;;;;;;3.13;0.85;;;11.30;83.20;;;;;;5002581;28;20037;-49
2021/12/01 12:44:50;;;;;;;3.80;1.25;;;11.30;83.20;;;;;;5012240;28;20109;-50
2021/12/01 12:47:38;;;;;;;3.50;1.33;;;11.40;83.00;;;;;;5003028;28;20045;-50
2021/12/01 12:50:10;;;;;;;2.40;0.93;;;11.40;82.40;;;;;;5009049;28;20092;-49
2021/12/01 12:52:42;;;;;;;3.15;0.82;;;11.40;82.40;;;;;;5006699;28;20292;-50
2021/12/01 12:55:09;;;;;;;1.48;0.77;;;11.40;82.40;;;;;;5004739;28;20042;-49
2021/12/01 12:57:48;;;;;;;3.15;1.15;;;11.30;82.40;;;;;;5002439;28;20087;-53
2021/12/01 13:00:20;;;;;;;1.88;1.08;;;11.40;82.20;;;;;;5002713;28;20673;-49
2021/12/01 13:02:48;;;;;;;3.80;0.90;;;11.30;82.30;;;;;;5012418;28;20627;-53
2021/12/01 13:05:37;;;;;;;2.40;1.05;;;11.30;82.40;;;;;;5022608;28;20564;-49
2021/12/01 13:08:31;;;;;;;2.95;1.05;;;11.40;82.00;;;;;;5019645;28;20045;-53
2021/12/01 13:11:02;;;;;;;4.22;1.20;;;11.30;82.70;;;;;;5007505;28;20046;-49